createdAt,value
2024-05-09T00:01:30.073Z,100.00
2024-05-09T00:06:34.841Z,100.00
2024-05-09T00:11:42.390Z,100.00
2024-05-09T00:16:48.347Z,100.00
2024-05-09T00:21:53.159Z,100.00
2024-05-09T00:27:01.280Z,100.00
2024-05-09T00:32:06.256Z,100.00
2024-05-09T00:37:11.049Z,100.00
2024-05-09T00:42:18.407Z,100.00
2024-05-09T00:47:24.103Z,100.00
2024-05-09T00:52:29.435Z,100.00
2024-05-09T00:57:36.934Z,100.00
2024-05-09T01:02:41.892Z,100.00
2024-05-09T01:07:46.785Z,100.00
2024-05-09T01:12:54.100Z,100.00
2024-05-09T01:17:59.566Z,100.00
2024-05-09T01:23:11.153Z,100.00
2024-05-09T01:28:16.578Z,100.00
2024-05-09T01:33:21.532Z,100.00
2024-05-09T01:38:29.057Z,100.00
2024-05-09T01:43:33.845Z,100.00
2024-05-09T01:48:38.675Z,100.00
2024-05-09T01:53:46.373Z,100.00
2024-05-09T01:58:51.164Z,100.00
2024-05-09T02:03:56.051Z,100.00
2024-05-09T02:09:03.468Z,100.00
2024-05-09T02:14:08.236Z,100.00
2024-05-09T02:19:13.167Z,100.00
2024-05-09T02:24:20.723Z,100.00
2024-05-09T02:29:25.678Z,100.00
2024-05-09T02:34:30.570Z,100.00
2024-05-09T02:39:37.936Z,100.00
2024-05-09T02:44:42.593Z,100.00
2024-05-09T02:49:47.487Z,100.00
2024-05-09T02:54:54.948Z,100.00
2024-05-09T02:59:59.630Z,100.00
2024-05-09T03:05:04.496Z,100.00
2024-05-09T03:10:18.531Z,100.00
2024-05-09T03:15:29.701Z,100.00
2024-05-09T03:20:36.191Z,100.00
2024-05-09T03:25:44.335Z,100.00
2024-05-09T03:30:49.061Z,100.00
2024-05-09T03:35:53.880Z,100.00
2024-05-09T03:41:01.340Z,100.00
2024-05-09T03:46:06.120Z,100.00
2024-05-09T03:51:11.106Z,100.00
2024-05-09T03:56:18.651Z,100.00
2024-05-09T04:01:25.121Z,100.00
2024-05-09T04:06:29.987Z,100.00
2024-05-09T04:11:37.333Z,100.00
2024-05-09T04:16:44.164Z,100.00
2024-05-09T04:21:48.976Z,100.00
2024-05-09T04:26:56.274Z,100.00
2024-05-09T04:32:01.073Z,100.00
2024-05-09T04:37:07.021Z,100.00
2024-05-09T04:42:14.438Z,100.00
2024-05-09T04:47:19.305Z,100.00
2024-05-09T04:52:24.062Z,100.00
2024-05-09T04:57:31.415Z,100.00
2024-05-09T05:02:37.233Z,100.00
2024-05-09T05:07:42.063Z,100.00
2024-05-09T05:13:07.320Z,100.00
2024-05-09T05:18:12.126Z,100.00
2024-05-09T05:23:18.333Z,100.00
2024-05-09T05:28:25.955Z,100.00
2024-05-09T05:33:30.979Z,100.00
2024-05-09T05:38:36.297Z,100.00
2024-05-09T05:43:43.935Z,100.00
2024-05-09T05:48:48.904Z,100.00
2024-05-09T05:53:55.128Z,100.00
2024-05-09T05:59:02.544Z,100.00
2024-05-09T06:04:07.326Z,100.00
2024-05-09T06:09:12.723Z,100.00
2024-05-09T06:14:20.171Z,100.00
2024-05-09T06:19:24.981Z,100.00
2024-05-09T06:24:29.716Z,100.00
2024-05-09T06:29:39.602Z,100.00
2024-05-09T06:34:44.401Z,100.00
2024-05-09T06:39:49.216Z,100.00
2024-05-09T06:44:56.512Z,100.00
2024-05-09T06:50:01.262Z,100.00
2024-05-09T06:55:06.014Z,100.00
2024-05-09T07:00:22.718Z,100.00
2024-05-09T07:05:34.946Z,100.00
2024-05-09T07:10:39.815Z,100.00
2024-05-09T07:15:47.132Z,100.00
2024-05-09T07:20:51.814Z,100.00
2024-05-09T07:25:57.776Z,100.00
2024-05-09T07:31:05.109Z,100.00
2024-05-09T07:36:10.275Z,100.00
2024-05-09T07:41:15.030Z,100.00
2024-05-09T07:47:14.681Z,100.00
2024-05-09T07:53:17.309Z,100.00
2024-05-09T07:57:13.578Z,100.00
2024-05-09T08:02:21.586Z,100.00
2024-05-09T08:07:26.563Z,91.70
2024-05-09T08:12:31.255Z,62.50
2024-05-09T08:17:38.648Z,51.70
2024-05-09T08:22:43.382Z,46.90
2024-05-09T08:27:48.183Z,47.80
2024-05-09T08:32:55.694Z,50.40
2024-05-09T08:38:00.624Z,52.20
2024-05-09T08:43:08.596Z,59.10
2024-05-09T08:48:17.020Z,60.80
2024-05-09T08:53:21.957Z,65.10
2024-05-09T08:58:27.342Z,66.50
2024-05-09T09:03:36.717Z,67.90
2024-05-09T09:08:42.630Z,67.70
2024-05-09T09:13:47.329Z,66.30
2024-05-09T09:18:59.123Z,67.20
2024-05-09T09:24:03.915Z,64.00
2024-05-09T09:29:08.580Z,66.80
2024-05-09T09:34:16.214Z,65.00
2024-05-09T09:39:22.833Z,66.00
2024-05-09T09:44:28.614Z,65.00
2024-05-09T09:49:36.785Z,65.30
2024-05-09T09:54:42.332Z,67.00
2024-05-09T09:59:49.436Z,65.00
2024-05-09T10:04:57.013Z,64.90
2024-05-09T10:10:02.045Z,60.90
2024-05-09T10:15:10.744Z,63.70
2024-05-09T10:20:22.039Z,61.40
2024-05-09T10:25:39.651Z,64.00
2024-05-09T10:30:46.585Z,61.50
2024-05-09T10:35:56.947Z,64.20
2024-05-09T10:41:03.716Z,64.00
2024-05-09T10:46:08.796Z,64.60
2024-05-09T10:51:16.604Z,62.80
2024-05-09T10:56:21.541Z,62.50
2024-05-09T11:01:26.941Z,63.20
2024-05-09T11:06:38.016Z,61.20
2024-05-09T11:11:43.040Z,58.80
2024-05-09T11:16:47.744Z,56.50
2024-05-09T11:21:56.497Z,55.80
2024-05-09T11:27:01.932Z,56.50
2024-05-09T11:32:08.006Z,55.80
2024-05-09T11:37:15.456Z,54.40
2024-05-09T11:42:20.747Z,56.20
2024-05-09T11:47:25.564Z,54.00
2024-05-09T11:52:32.974Z,55.70
2024-05-09T11:57:38.970Z,56.70
2024-05-09T12:02:44.074Z,56.40
2024-05-09T12:07:51.465Z,55.90
2024-05-09T12:12:56.642Z,57.00
2024-05-09T12:18:03.469Z,54.30
2024-05-09T12:23:11.618Z,55.00
2024-05-09T12:28:18.431Z,53.50
2024-05-09T12:33:23.391Z,51.90
2024-05-09T12:38:30.721Z,52.10
2024-05-09T12:43:35.474Z,52.90
2024-05-09T12:48:40.504Z,53.30
2024-05-09T12:53:47.971Z,55.00
2024-05-09T12:58:54.218Z,55.40
2024-05-09T13:03:59.206Z,56.20
2024-05-09T13:09:07.017Z,55.00
2024-05-09T13:14:11.770Z,57.50
2024-05-09T13:19:16.628Z,55.60
2024-05-09T13:24:24.128Z,54.20
2024-05-09T13:29:28.951Z,54.40
2024-05-09T13:34:33.683Z,53.30
2024-05-09T13:39:41.118Z,53.90
2024-05-09T13:44:45.843Z,54.50
2024-05-09T13:49:51.146Z,59.60
2024-05-09T13:54:59.312Z,55.10
2024-05-09T14:00:07.009Z,56.50
2024-05-09T14:05:12.472Z,58.30
2024-05-09T14:10:26.044Z,54.50
2024-05-09T14:15:35.373Z,58.70
2024-05-09T14:20:40.382Z,55.10
2024-05-09T14:25:51.311Z,55.80
2024-05-09T14:30:58.045Z,56.30
2024-05-09T14:36:02.848Z,55.40
2024-05-09T14:41:13.175Z,55.00
2024-05-09T14:46:18.233Z,55.50
2024-05-09T14:51:23.051Z,54.20
2024-05-09T14:56:30.396Z,53.30
2024-05-09T15:01:35.185Z,53.20
2024-05-09T15:06:42.573Z,53.20
2024-05-09T15:11:49.965Z,52.60
2024-05-09T15:16:57.230Z,52.90
2024-05-09T15:22:02.003Z,52.60
2024-05-09T15:27:09.520Z,52.30
2024-05-09T15:32:14.681Z,53.00
2024-05-09T15:37:19.547Z,52.80
2024-05-09T15:42:27.249Z,52.50
2024-05-09T15:47:32.057Z,52.80
2024-05-09T15:52:36.822Z,54.10
2024-05-09T15:57:46.003Z,54.60
2024-05-09T16:02:53.245Z,54.20
2024-05-09T16:07:58.090Z,55.60
2024-05-09T16:13:05.545Z,55.00
2024-05-09T16:18:10.754Z,55.50
2024-05-09T16:23:15.557Z,56.10
2024-05-09T16:28:26.291Z,57.90
2024-05-09T16:33:31.677Z,57.00
2024-05-09T16:38:36.564Z,58.20
2024-05-09T16:43:44.030Z,57.80
2024-05-09T16:48:48.912Z,58.30
2024-05-09T16:53:53.702Z,58.10
2024-05-09T16:59:01.057Z,59.90
2024-05-09T17:04:05.978Z,58.60
2024-05-09T17:09:12.062Z,58.70
2024-05-09T17:14:22.812Z,58.90
2024-05-09T17:19:27.735Z,58.80
2024-05-09T17:24:32.604Z,59.30
2024-05-09T17:29:40.128Z,58.60
2024-05-09T17:34:44.919Z,58.70
2024-05-09T17:39:49.735Z,59.40
2024-05-09T17:44:57.243Z,59.40
2024-05-09T17:50:02.212Z,58.50
2024-05-09T17:55:07.709Z,59.70
2024-05-09T18:00:24.619Z,60.00
2024-05-09T18:05:38.845Z,60.60
2024-05-09T18:10:44.544Z,60.80
2024-05-09T18:15:52.060Z,61.30
2024-05-09T18:20:56.767Z,62.50
2024-05-09T18:26:02.117Z,62.10
2024-05-09T18:31:09.663Z,62.60
2024-05-09T18:36:14.425Z,62.10
2024-05-09T18:41:20.495Z,62.70
2024-05-09T18:46:28.295Z,63.90
2024-05-09T18:51:33.109Z,64.60
2024-05-09T18:56:39.956Z,66.70
2024-05-09T19:01:47.538Z,65.50
2024-05-09T19:06:52.474Z,66.50
2024-05-09T19:11:57.432Z,66.20
2024-05-09T19:17:04.951Z,68.50
2024-05-09T19:22:09.883Z,69.00
2024-05-09T19:27:14.651Z,70.30
2024-05-09T19:32:22.009Z,71.70
2024-05-09T19:37:31.695Z,73.10
2024-05-09T19:42:36.449Z,74.40
2024-05-09T19:47:43.993Z,75.50
2024-05-09T19:52:48.722Z,76.60
2024-05-09T19:57:53.452Z,77.70
2024-05-09T20:03:00.932Z,79.20
2024-05-09T20:08:05.743Z,81.10
2024-05-09T20:13:10.639Z,82.90
2024-05-09T20:18:20.131Z,83.80
2024-05-09T20:23:24.903Z,84.00
2024-05-09T20:28:29.697Z,84.60
2024-05-09T20:33:37.905Z,85.70
2024-05-09T20:38:42.689Z,86.20
2024-05-09T20:43:47.463Z,87.20
2024-05-09T20:48:56.347Z,87.60
2024-05-09T20:54:01.298Z,86.90
2024-05-09T20:59:06.029Z,87.80
2024-05-09T21:04:13.586Z,89.10
2024-05-09T21:09:18.533Z,93.80
2024-05-09T21:14:23.267Z,94.70
2024-05-09T21:19:30.595Z,95.60
2024-05-09T21:24:35.527Z,95.40
2024-05-09T21:29:40.362Z,96.90
2024-05-09T21:34:47.860Z,100.00
2024-05-09T21:39:52.683Z,100.00
2024-05-09T21:44:57.357Z,98.70
2024-05-09T21:50:06.126Z,98.80
2024-05-09T21:55:12.578Z,100.00
2024-05-09T22:00:28.480Z,100.00
2024-05-09T22:05:44.429Z,100.00
2024-05-09T22:10:51.064Z,100.00
2024-05-09T22:15:55.826Z,100.00
2024-05-09T22:21:03.240Z,100.00
2024-05-09T22:26:09.050Z,100.00
2024-05-09T22:31:13.853Z,100.00
2024-05-09T22:36:21.209Z,100.00
2024-05-09T22:41:26.117Z,100.00
2024-05-09T22:46:31.219Z,100.00
2024-05-09T22:51:38.614Z,100.00
2024-05-09T22:56:46.384Z,100.00
2024-05-09T23:01:51.131Z,100.00
2024-05-09T23:06:58.559Z,100.00
2024-05-09T23:12:03.392Z,100.00
2024-05-09T23:17:08.162Z,100.00
2024-05-09T23:22:15.682Z,100.00
2024-05-09T23:27:20.359Z,100.00
2024-05-09T23:32:25.170Z,100.00
2024-05-09T23:37:32.554Z,100.00
2024-05-09T23:42:37.252Z,100.00
2024-05-09T23:47:42.288Z,100.00
2024-05-09T23:52:49.653Z,100.00
2024-05-09T23:57:54.322Z,100.00
